createdAt,value
2022-10-19T00:01:15.563Z,100602.59
2022-10-19T00:03:45.097Z,100605.10
2022-10-19T00:06:18.447Z,100602.39
2022-10-19T00:08:46.112Z,100595.14
2022-10-19T00:11:13.726Z,100598.86
2022-10-19T00:13:41.845Z,100601.71
2022-10-19T00:16:13.134Z,100604.71
2022-10-19T00:18:43.350Z,100605.48
2022-10-19T00:21:13.565Z,100607.11
2022-10-19T00:23:41.867Z,100601.75
2022-10-19T00:26:10.094Z,100595.84
2022-10-19T00:28:38.225Z,100596.89
2022-10-19T00:31:17.771Z,100598.63
2022-10-19T00:33:47.117Z,100595.69
2022-10-19T00:36:21.412Z,100598.80
2022-10-19T00:38:49.869Z,100593.71
2022-10-19T00:41:19.690Z,100589.16
2022-10-19T00:44:19.227Z,100587.75
2022-10-19T00:46:51.673Z,100588.42
2022-10-19T00:49:27.129Z,100584.05
2022-10-19T00:52:04.325Z,100578.11
2022-10-19T00:54:33.541Z,100577.91
2022-10-19T00:57:01.138Z,100582.92
2022-10-19T00:59:31.838Z,100584.65
2022-10-19T01:02:02.583Z,100585.65
2022-10-19T01:04:33.873Z,100586.48
2022-10-19T01:07:05.081Z,100585.40
2022-10-19T01:09:32.666Z,100581.73
2022-10-19T01:12:19.366Z,100584.81
2022-10-19T01:15:03.054Z,100580.08
2022-10-19T01:17:36.756Z,100575.70
2022-10-19T01:20:35.510Z,100575.00
2022-10-19T01:23:27.861Z,100574.29
2022-10-19T01:26:04.713Z,100572.83
2022-10-19T01:29:04.438Z,100566.38
2022-10-19T01:31:37.056Z,100571.94
2022-10-19T01:34:18.116Z,100571.92
2022-10-19T01:37:04.670Z,100574.55
2022-10-19T01:39:49.804Z,100577.13
2022-10-19T01:42:30.640Z,100576.41
2022-10-19T01:45:24.694Z,100573.83
2022-10-19T01:48:07.322Z,100565.64
2022-10-19T01:50:48.091Z,100568.27
2022-10-19T01:53:18.611Z,100564.23
2022-10-19T01:55:50.325Z,100561.11
2022-10-19T01:58:27.253Z,100557.30
2022-10-19T02:00:59.915Z,100553.65
2022-10-19T02:03:28.972Z,100545.34
2022-10-19T02:05:56.859Z,100547.92
2022-10-19T02:08:38.348Z,100542.05
2022-10-19T02:11:06.274Z,100545.19
2022-10-19T02:13:36.247Z,100544.36
2022-10-19T02:16:09.322Z,100539.14
2022-10-19T02:18:44.770Z,100537.93
2022-10-19T02:21:12.727Z,100536.19
2022-10-19T02:23:40.487Z,100537.27
2022-10-19T02:26:08.659Z,100533.45
2022-10-19T02:28:36.988Z,100537.27
2022-10-19T02:31:05.112Z,100532.22
2022-10-19T02:33:32.745Z,100527.90
2022-10-19T02:36:00.700Z,100528.09
2022-10-19T02:38:28.627Z,100528.42
2022-10-19T02:41:13.359Z,100525.42
2022-10-19T02:43:43.791Z,100520.70
2022-10-19T02:46:23.028Z,100515.13
2022-10-19T02:48:51.805Z,100506.30
2022-10-19T02:51:38.607Z,100517.33
2022-10-19T02:54:08.544Z,100519.50
2022-10-19T02:56:36.108Z,100527.05
2022-10-19T02:59:03.877Z,100525.36
2022-10-19T03:01:31.800Z,100526.34
2022-10-19T03:03:59.509Z,100521.40
2022-10-19T03:06:27.125Z,100523.26
2022-10-19T03:08:54.697Z,100520.05
2022-10-19T03:11:22.348Z,100522.73
2022-10-19T03:13:49.907Z,100514.59
2022-10-19T03:16:17.696Z,100515.48
2022-10-19T03:18:45.268Z,100514.62
2022-10-19T03:21:13.387Z,100515.68
2022-10-19T03:23:41.847Z,100515.34
2022-10-19T03:26:14.810Z,100509.91
2022-10-19T03:28:42.668Z,100506.23
2022-10-19T03:31:10.347Z,100496.63
2022-10-19T03:33:38.064Z,100504.05
2022-10-19T03:36:25.938Z,100505.59
2022-10-19T03:38:56.151Z,100507.14
2022-10-19T03:41:27.373Z,100507.49
2022-10-19T03:43:56.297Z,100504.53
2022-10-19T03:46:24.927Z,100511.84
2022-10-19T03:48:53.639Z,100517.56
2022-10-19T03:51:24.798Z,100519.79
2022-10-19T03:53:56.409Z,100515.73
2022-10-19T03:56:26.368Z,100516.73
2022-10-19T03:58:55.643Z,100520.30
2022-10-19T04:01:30.159Z,100524.77
2022-10-19T04:04:00.472Z,100524.20
2022-10-19T04:06:31.612Z,100525.02
2022-10-19T04:09:00.259Z,100527.61
2022-10-19T04:11:30.597Z,100525.86
2022-10-19T04:13:59.299Z,100515.24
2022-10-19T04:16:29.135Z,100517.36
2022-10-19T04:18:56.790Z,100523.52
2022-10-19T04:21:32.136Z,100526.98
2022-10-19T04:24:08.833Z,100525.23
2022-10-19T04:26:46.016Z,100522.83
2022-10-19T04:29:15.210Z,100520.70
2022-10-19T04:31:43.093Z,100523.41
2022-10-19T04:34:11.647Z,100519.91
2022-10-19T04:36:39.330Z,100517.80
2022-10-19T04:39:08.074Z,100517.96
2022-10-19T04:41:38.317Z,100522.08
2022-10-19T04:44:09.427Z,100517.23
2022-10-19T04:46:38.486Z,100514.44
2022-10-19T04:49:06.997Z,100508.67
2022-10-19T04:51:35.259Z,100496.34
2022-10-19T04:54:04.608Z,100493.05
2022-10-19T04:56:32.351Z,100491.67
2022-10-19T04:59:00.938Z,100494.64
2022-10-19T05:01:31.232Z,100491.21
2022-10-19T05:04:01.397Z,100492.29
2022-10-19T05:06:30.718Z,100495.76
2022-10-19T05:08:59.782Z,100501.98
2022-10-19T05:11:27.781Z,100495.94
2022-10-19T05:13:57.231Z,100491.77
2022-10-19T05:16:25.977Z,100487.41
2022-10-19T05:18:59.610Z,100489.98
2022-10-19T05:21:29.234Z,100493.27
2022-10-19T05:23:58.118Z,100487.52
2022-10-19T05:26:28.041Z,100490.24
2022-10-19T05:29:01.486Z,100490.24
2022-10-19T05:31:32.744Z,100494.29
2022-10-19T05:34:00.812Z,100495.34
2022-10-19T05:36:34.780Z,100490.83
2022-10-19T05:39:06.049Z,100492.23
2022-10-19T05:41:34.664Z,100499.36
2022-10-19T05:44:06.937Z,100500.92
2022-10-19T05:46:38.024Z,100497.91
2022-10-19T05:49:05.923Z,100501.73
2022-10-19T05:51:34.872Z,100505.05
2022-10-19T05:54:04.052Z,100506.83
2022-10-19T05:56:32.860Z,100505.62
2022-10-19T05:59:04.097Z,100507.02
2022-10-19T06:01:33.286Z,100509.61
2022-10-19T06:04:02.732Z,100506.98
2022-10-19T06:06:34.758Z,100510.23
2022-10-19T06:09:03.765Z,100507.08
2022-10-19T06:11:35.163Z,100502.66
2022-10-19T06:14:06.905Z,100501.08
2022-10-19T06:16:35.400Z,100514.65
2022-10-19T06:19:05.212Z,100515.33
2022-10-19T06:21:34.582Z,100514.96
2022-10-19T06:24:06.798Z,100516.84
2022-10-19T06:26:35.860Z,100519.20
2022-10-19T06:29:05.022Z,100525.96
2022-10-19T06:31:35.466Z,100530.13
2022-10-19T06:34:04.521Z,100530.98
2022-10-19T06:36:33.407Z,100531.11
2022-10-19T06:39:03.775Z,100536.65
2022-10-19T06:41:32.559Z,100536.53
2022-10-19T06:44:01.639Z,100540.59
2022-10-19T06:46:29.429Z,100537.85
2022-10-19T06:48:59.084Z,100541.89
2022-10-19T06:51:29.308Z,100550.25
2022-10-19T06:53:57.637Z,100551.86
2022-10-19T06:56:26.708Z,100549.48
2022-10-19T06:58:58.227Z,100555.94
2022-10-19T07:01:25.902Z,100552.45
2022-10-19T07:03:55.299Z,100559.36
2022-10-19T07:06:24.302Z,100562.09
2022-10-19T07:08:52.362Z,100564.54
2022-10-19T07:11:22.802Z,100565.30
2022-10-19T07:13:52.634Z,100566.01
2022-10-19T07:16:21.978Z,100573.21
2022-10-19T07:18:51.949Z,100578.08
2022-10-19T07:21:22.953Z,100578.75
2022-10-19T07:23:51.237Z,100585.14
2022-10-19T07:26:27.411Z,100588.55
2022-10-19T07:28:56.952Z,100591.31
2022-10-19T07:31:27.370Z,100594.64
2022-10-19T07:34:00.758Z,100600.55
2022-10-19T07:36:30.402Z,100607.20
2022-10-19T07:38:58.249Z,100610.65
2022-10-19T07:41:26.309Z,100609.55
2022-10-19T07:43:54.661Z,100611.17
2022-10-19T07:46:26.789Z,100616.60
2022-10-19T07:48:55.758Z,100613.30
2022-10-19T07:51:23.526Z,100615.53
2022-10-19T07:53:51.673Z,100622.06
2022-10-19T07:56:24.174Z,100619.52
2022-10-19T07:58:54.626Z,100619.41
2022-10-19T08:01:25.134Z,100618.02
2022-10-19T08:06:42.732Z,100630.66
2022-10-19T08:09:15.611Z,100635.59
2022-10-19T08:11:50.580Z,100637.82
2022-10-19T08:14:18.171Z,100638.91
2022-10-19T08:16:45.978Z,100642.31
2022-10-19T08:19:16.119Z,100639.93
2022-10-19T08:21:46.217Z,100643.04
2022-10-19T08:24:16.233Z,100642.73
2022-10-19T08:26:44.469Z,100647.86
2022-10-19T08:29:14.688Z,100648.48
2022-10-19T08:31:44.891Z,100650.98
2022-10-19T08:34:14.083Z,100652.46
2022-10-19T08:39:12.727Z,100659.33
2022-10-19T08:41:40.879Z,100662.31
2022-10-19T08:44:18.061Z,100669.23
2022-10-19T08:47:07.155Z,100667.06
2022-10-19T08:49:40.410Z,100660.00
2022-10-19T08:52:19.921Z,100662.98
2022-10-19T08:54:59.626Z,100662.02
2022-10-19T08:57:50.526Z,100665.70
2022-10-19T09:00:29.904Z,100668.64
2022-10-19T09:03:27.187Z,100667.27
2022-10-19T09:06:27.212Z,100673.67
2022-10-19T09:08:57.171Z,100676.60
2022-10-19T09:11:38.903Z,100678.13
2022-10-19T09:14:14.941Z,100679.92
2022-10-19T09:16:46.569Z,100680.80
2022-10-19T09:19:23.033Z,100684.33
2022-10-19T09:21:56.516Z,100687.11
2022-10-19T09:24:31.407Z,100693.29
2022-10-19T09:27:02.202Z,100697.14
2022-10-19T09:29:41.897Z,100694.84
2022-10-19T09:32:18.623Z,100697.45
2022-10-19T09:35:18.318Z,100701.11
2022-10-19T09:37:49.198Z,100703.07
2022-10-19T09:40:30.843Z,100702.08
2022-10-19T09:43:09.014Z,100704.45
2022-10-19T09:45:57.055Z,100701.99
2022-10-19T09:48:42.043Z,100702.08
2022-10-19T09:51:15.271Z,100709.17
2022-10-19T09:53:52.879Z,100710.65
2022-10-19T09:56:23.056Z,100709.27
2022-10-19T09:58:57.394Z,100707.30
2022-10-19T10:01:46.124Z,100706.08
2022-10-19T10:04:18.920Z,100713.02
2022-10-19T10:06:48.839Z,100716.25
2022-10-19T10:09:26.679Z,100719.66
2022-10-19T10:11:59.717Z,100718.30
2022-10-19T10:14:33.985Z,100724.60
2022-10-19T10:17:11.356Z,100729.34
2022-10-19T10:20:03.089Z,100733.81
2022-10-19T10:22:35.349Z,100743.92
2022-10-19T10:25:18.299Z,100747.35
2022-10-19T10:27:55.932Z,100748.93
2022-10-19T10:30:23.703Z,100749.46
2022-10-19T10:32:54.766Z,100747.95
2022-10-19T10:35:32.694Z,100749.84
2022-10-19T10:38:17.791Z,100748.74
2022-10-19T10:41:02.271Z,100748.59
2022-10-19T10:43:34.204Z,100753.48
2022-10-19T10:46:07.925Z,100750.64
2022-10-19T10:48:40.871Z,100761.02
2022-10-19T10:51:20.767Z,100754.37
2022-10-19T10:53:48.738Z,100757.31
2022-10-19T10:56:34.313Z,100754.05
2022-10-19T10:59:12.214Z,100760.88
2022-10-19T11:01:42.576Z,100774.70
2022-10-19T11:04:25.500Z,100789.22
2022-10-19T11:07:05.133Z,100799.23
2022-10-19T11:09:44.058Z,100799.55
2022-10-19T11:12:17.776Z,100801.20
2022-10-19T11:14:57.878Z,100798.62
2022-10-19T11:17:30.893Z,100799.52
2022-10-19T11:19:58.676Z,100801.22
2022-10-19T11:22:34.966Z,100804.15
2022-10-19T11:25:18.860Z,100804.40
2022-10-19T11:28:12.807Z,100798.96
2022-10-19T11:31:03.965Z,100798.95
2022-10-19T11:33:34.710Z,100803.09
2022-10-19T11:36:12.508Z,100801.45
2022-10-19T11:38:53.011Z,100798.42
2022-10-19T11:41:54.184Z,100800.73
2022-10-19T11:44:46.891Z,100801.60
2022-10-19T11:47:37.152Z,100799.30
2022-10-19T11:50:29.607Z,100794.19
2022-10-19T11:53:24.752Z,100788.44
2022-10-19T11:56:34.752Z,100796.30
2022-10-19T11:59:39.105Z,100812.13
2022-10-19T12:02:39.627Z,100822.39
2022-10-19T12:05:16.737Z,100826.89
2022-10-19T12:08:33.768Z,100823.13
2022-10-19T12:11:18.454Z,100821.45
2022-10-19T12:14:03.162Z,100826.67
2022-10-19T12:16:38.192Z,100830.13
2022-10-19T12:19:12.891Z,100835.02
2022-10-19T12:21:43.604Z,100837.00
2022-10-19T12:24:17.587Z,100840.38
2022-10-19T12:26:46.985Z,100838.20
2022-10-19T12:29:21.606Z,100832.56
2022-10-19T12:31:52.562Z,100829.10
2022-10-19T12:34:50.855Z,100831.75
2022-10-19T12:37:48.232Z,100828.30
2022-10-19T12:40:40.295Z,100830.05
2022-10-19T12:43:15.078Z,100830.30
2022-10-19T12:46:14.937Z,100829.41
2022-10-19T12:48:42.577Z,100828.71
2022-10-19T12:51:15.192Z,100829.42
2022-10-19T12:56:33.088Z,100825.89
2022-10-19T12:59:02.748Z,100827.08
2022-10-19T13:01:39.587Z,100831.38
2022-10-19T13:04:14.594Z,100824.22
2022-10-19T13:07:12.387Z,100827.56
2022-10-19T13:09:48.837Z,100828.96
2022-10-19T13:12:23.536Z,100823.90
2022-10-19T13:14:59.581Z,100830.67
2022-10-19T13:17:36.589Z,100827.49
2022-10-19T13:20:20.834Z,100828.80
2022-10-19T13:23:17.285Z,100830.30
2022-10-19T13:25:46.689Z,100830.80
2022-10-19T13:28:15.594Z,100831.02
2022-10-19T13:30:43.186Z,100835.76
2022-10-19T13:33:30.299Z,100835.44
2022-10-19T13:36:01.051Z,100846.05
2022-10-19T13:38:32.898Z,100850.88
2022-10-19T13:41:25.915Z,100853.30
2022-10-19T13:44:12.201Z,100863.30
2022-10-19T13:46:47.526Z,100860.00
2022-10-19T13:49:41.839Z,100863.67
2022-10-19T13:52:43.766Z,100870.10
2022-10-19T13:59:07.874Z,100866.67
2022-10-19T14:01:51.807Z,100875.91
2022-10-19T14:04:58.633Z,100881.23
2022-10-19T14:07:33.249Z,100883.05
2022-10-19T14:10:14.186Z,100880.56
2022-10-19T14:12:47.374Z,100887.04
2022-10-19T14:15:17.897Z,100892.69
2022-10-19T14:17:50.354Z,100889.77
2022-10-19T14:20:36.009Z,100887.70
2022-10-19T14:23:24.804Z,100890.08
2022-10-19T14:25:57.662Z,100893.99
2022-10-19T14:28:26.711Z,100889.59
2022-10-19T14:31:08.377Z,100890.11
2022-10-19T14:33:40.339Z,100893.70
2022-10-19T14:36:16.503Z,100895.52
2022-10-19T14:38:44.772Z,100898.53
2022-10-19T14:41:36.784Z,100900.80
2022-10-19T14:44:38.516Z,100906.15
2022-10-19T14:47:27.162Z,100907.45
2022-10-19T14:50:04.100Z,100910.73
2022-10-19T14:52:48.957Z,100914.93
2022-10-19T14:55:20.033Z,100916.25
2022-10-19T14:58:05.628Z,100923.14
2022-10-19T15:00:33.668Z,100930.18
2022-10-19T15:03:10.140Z,100928.45
2022-10-19T15:05:46.664Z,100932.89
2022-10-19T15:08:29.926Z,100938.34
2022-10-19T15:10:58.969Z,100943.29
2022-10-19T15:17:03.270Z,100944.02
2022-10-19T15:19:44.330Z,100954.27
2022-10-19T15:22:33.385Z,100958.46
2022-10-19T15:25:08.766Z,100962.09
2022-10-19T15:27:43.106Z,100960.05
2022-10-19T15:30:28.505Z,100962.70
2022-10-19T15:33:02.726Z,100968.62
2022-10-19T15:35:39.793Z,100973.95
2022-10-19T15:38:25.469Z,100975.91
2022-10-19T15:40:59.292Z,100977.66
2022-10-19T15:43:51.785Z,100980.77
2022-10-19T15:46:24.288Z,100984.95
2022-10-19T15:48:57.432Z,100990.27
2022-10-19T15:51:31.005Z,100995.05
2022-10-19T15:54:03.220Z,100993.42
2022-10-19T15:56:33.446Z,100999.59
2022-10-19T15:59:04.283Z,101004.52
2022-10-19T16:01:34.360Z,101012.25
2022-10-19T16:04:03.225Z,101013.54
2022-10-19T16:06:34.154Z,101013.93
2022-10-19T16:09:02.958Z,101014.34
2022-10-19T16:11:33.800Z,101026.00
2022-10-19T16:14:01.452Z,101026.54
2022-10-19T16:16:32.550Z,101026.05
2022-10-19T16:19:00.844Z,101031.45
2022-10-19T16:21:32.630Z,101033.21
2022-10-19T16:24:00.711Z,101037.20
2022-10-19T16:26:29.192Z,101043.13
2022-10-19T16:28:56.867Z,101046.08
2022-10-19T16:31:24.463Z,101045.90
2022-10-19T16:33:52.102Z,101045.75
2022-10-19T16:36:20.370Z,101045.40
2022-10-19T16:38:48.054Z,101045.76
2022-10-19T16:41:16.463Z,101051.46
2022-10-19T16:43:44.245Z,101050.92
2022-10-19T16:46:11.911Z,101054.39
2022-10-19T16:48:39.554Z,101054.91
2022-10-19T16:51:07.150Z,101053.34
2022-10-19T16:53:36.874Z,101057.34
2022-10-19T16:56:13.704Z,101054.73
2022-10-19T16:58:41.268Z,101063.38
2022-10-19T17:01:10.746Z,101064.25
2022-10-19T17:03:38.657Z,101065.45
2022-10-19T17:06:07.804Z,101068.73
2022-10-19T17:09:07.385Z,101068.72
2022-10-19T17:11:38.664Z,101068.89
2022-10-19T17:14:13.004Z,101072.70
2022-10-19T17:16:40.987Z,101073.39
2022-10-19T17:19:10.225Z,101077.53
2022-10-19T17:21:38.892Z,101077.17
2022-10-19T17:24:09.495Z,101083.90
2022-10-19T17:26:42.100Z,101085.11
2022-10-19T17:29:09.890Z,101091.15
2022-10-19T17:31:39.639Z,101092.70
2022-10-19T17:34:08.538Z,101095.80
2022-10-19T17:39:11.330Z,101103.41
2022-10-19T17:41:39.037Z,101104.11
2022-10-19T17:44:07.433Z,101106.18
2022-10-19T17:46:35.957Z,101109.98
2022-10-19T17:49:04.139Z,101111.21
2022-10-19T17:51:33.970Z,101116.55
2022-10-19T17:54:05.399Z,101117.38
2022-10-19T17:56:34.708Z,101123.96
2022-10-19T17:59:03.820Z,101125.50
2022-10-19T18:01:31.537Z,101124.62
2022-10-19T18:03:59.266Z,101129.10
2022-10-19T18:06:31.641Z,101131.50
2022-10-19T18:09:02.157Z,101133.05
2022-10-19T18:11:35.929Z,101140.83
2022-10-19T18:14:04.517Z,101143.23
2022-10-19T18:16:35.412Z,101145.80
2022-10-19T18:19:04.770Z,101148.55
2022-10-19T18:21:38.378Z,101147.85
2022-10-19T18:24:11.305Z,101148.20
2022-10-19T18:26:42.646Z,101153.56
2022-10-19T18:29:17.776Z,101153.40
2022-10-19T18:31:51.238Z,101156.18
2022-10-19T18:34:25.179Z,101153.41
2022-10-19T18:36:53.835Z,101155.50
2022-10-19T18:39:21.771Z,101154.80
2022-10-19T18:41:56.315Z,101158.42
2022-10-19T18:44:26.651Z,101161.53
2022-10-19T18:46:57.399Z,101162.37
2022-10-19T18:49:25.587Z,101162.38
2022-10-19T18:51:55.435Z,101160.29
2022-10-19T18:54:26.145Z,101161.50
2022-10-19T18:56:55.138Z,101159.59
2022-10-19T18:59:22.986Z,101154.75
2022-10-19T19:01:50.957Z,101157.86
2022-10-19T19:04:18.860Z,101154.58
2022-10-19T19:06:46.888Z,101155.09
2022-10-19T19:09:14.582Z,101160.29
2022-10-19T19:11:42.255Z,101159.94
2022-10-19T19:14:16.044Z,101164.61
2022-10-19T19:16:45.498Z,101164.79
2022-10-19T19:19:15.854Z,101167.55
2022-10-19T19:21:44.980Z,101173.25
2022-10-19T19:24:16.762Z,101178.59
2022-10-19T19:26:49.282Z,101182.20
2022-10-19T19:29:18.938Z,101184.75
2022-10-19T19:31:47.325Z,101188.36
2022-10-19T19:34:16.141Z,101189.04
2022-10-19T19:36:50.757Z,101186.26
2022-10-19T19:39:20.544Z,101190.72
2022-10-19T19:41:49.539Z,101197.42
2022-10-19T19:44:19.321Z,101200.16
2022-10-19T19:46:47.040Z,101200.48
2022-10-19T19:49:14.893Z,101200.50
2022-10-19T19:51:43.054Z,101204.66
2022-10-19T19:54:12.314Z,101208.67
2022-10-19T19:56:42.340Z,101210.11
2022-10-19T19:59:12.195Z,101212.90
2022-10-19T20:01:40.281Z,101216.88
2022-10-19T20:04:08.872Z,101223.98
2022-10-19T20:06:38.815Z,101224.66
2022-10-19T20:09:10.870Z,101229.33
2022-10-19T20:11:42.413Z,101227.59
2022-10-19T20:14:11.934Z,101226.00
2022-10-19T20:16:39.877Z,101229.59
2022-10-19T20:19:11.144Z,101231.10
2022-10-19T20:21:39.312Z,101238.70
2022-10-19T20:24:07.733Z,101246.64
2022-10-19T20:26:37.399Z,101245.41
2022-10-19T20:29:05.706Z,101246.42
2022-10-19T20:31:39.551Z,101247.08
2022-10-19T20:34:11.160Z,101244.11
2022-10-19T20:36:39.854Z,101246.14
2022-10-19T20:39:07.692Z,101249.20
2022-10-19T20:41:35.532Z,101250.20
2022-10-19T20:44:03.363Z,101254.13
2022-10-19T20:46:31.811Z,101253.18
2022-10-19T20:49:01.931Z,101253.82
2022-10-19T20:51:32.951Z,101251.19
2022-10-19T20:54:04.250Z,101252.73
2022-10-19T20:56:35.898Z,101249.09
2022-10-19T20:59:06.641Z,101247.88
2022-10-19T21:01:37.774Z,101248.59
2022-10-19T21:04:07.974Z,101252.23
2022-10-19T21:06:46.340Z,101251.85
2022-10-19T21:09:17.197Z,101247.36
2022-10-19T21:11:46.191Z,101247.66
2022-10-19T21:14:17.955Z,101247.44
2022-10-19T21:16:45.679Z,101252.08
2022-10-19T21:19:20.474Z,101255.52
2022-10-19T21:21:52.642Z,101253.98
2022-10-19T21:24:27.456Z,101253.95
2022-10-19T21:26:55.120Z,101252.40
2022-10-19T21:29:22.810Z,101254.47
2022-10-19T21:31:53.534Z,101253.44
2022-10-19T21:34:24.750Z,101248.61
2022-10-19T21:36:53.865Z,101247.21
2022-10-19T21:39:22.227Z,101245.45
2022-10-19T21:41:50.242Z,101244.21
2022-10-19T21:44:18.811Z,101242.65
2022-10-19T21:46:49.766Z,101241.61
2022-10-19T21:49:17.573Z,101237.85
2022-10-19T21:51:47.198Z,101242.20
2022-10-19T21:54:20.687Z,101239.28
2022-10-19T21:56:48.507Z,101235.83
2022-10-19T21:59:17.179Z,101245.84
2022-10-19T22:01:44.892Z,101250.30
2022-10-19T22:04:17.604Z,101247.70
2022-10-19T22:06:46.076Z,101247.73
2022-10-19T22:09:20.775Z,101243.97
2022-10-19T22:11:48.834Z,101237.09
2022-10-19T22:14:17.975Z,101240.76
2022-10-19T22:16:45.610Z,101242.69
2022-10-19T22:19:13.780Z,101242.39
2022-10-19T22:21:41.508Z,101244.49
2022-10-19T22:24:14.438Z,101245.05
2022-10-19T22:26:46.222Z,101251.67
2022-10-19T22:29:14.498Z,101257.92
2022-10-19T22:31:42.792Z,101263.64
2022-10-19T22:34:16.729Z,101265.02
2022-10-19T22:36:45.255Z,101266.94
2022-10-19T22:39:14.386Z,101267.40
2022-10-19T22:41:42.113Z,101267.70
2022-10-19T22:44:09.804Z,101266.27
2022-10-19T22:46:37.625Z,101269.89
2022-10-19T22:49:06.366Z,101269.54
2022-10-19T22:51:34.057Z,101265.90
2022-10-19T22:54:01.904Z,101264.52
2022-10-19T22:56:30.176Z,101263.98
2022-10-19T22:59:01.737Z,101265.68
2022-10-19T23:01:29.466Z,101263.20
2022-10-19T23:03:57.132Z,101262.27
2022-10-19T23:06:25.012Z,101262.19
2022-10-19T23:08:53.931Z,101261.74
2022-10-19T23:11:22.637Z,101268.02
2022-10-19T23:13:50.266Z,101276.18
2022-10-19T23:16:18.008Z,101281.15
2022-10-19T23:18:45.629Z,101284.21
2022-10-19T23:21:14.286Z,101288.38
2022-10-19T23:23:43.695Z,101292.73
2022-10-19T23:26:17.447Z,101295.61
2022-10-19T23:28:47.444Z,101291.73
2022-10-19T23:31:20.862Z,101290.98
2022-10-19T23:33:48.490Z,101297.35
2022-10-19T23:36:23.218Z,101302.65
2022-10-19T23:38:52.706Z,101302.24
2022-10-19T23:41:22.747Z,101306.38
2022-10-19T23:43:50.505Z,101307.94
2022-10-19T23:46:18.668Z,101307.77
2022-10-19T23:48:46.255Z,101313.41
2022-10-19T23:51:16.300Z,101312.88
2022-10-19T23:53:45.962Z,101314.91
2022-10-19T23:56:29.618Z,101324.35
2022-10-19T23:58:57.418Z,101323.92
